sensor_id;sensor_type;location;lat;lon;timestamp;temperature;humidity
14331;DHT22;7249;49.376;11.080;2024-03-06T00:02:24;7.00;99.90
14331;DHT22;7249;49.376;11.080;2024-03-06T00:04:49;7.10;99.90
14331;DHT22;7249;49.376;11.080;2024-03-06T00:07:15;7.00;99.90
14331;DHT22;7249;49.376;11.080;2024-03-06T00:09:41;7.10;99.90
14331;DHT22;7249;49.376;11.080;2024-03-06T00:12:07;7.10;99.90
14331;DHT22;7249;49.376;11.080;2024-03-06T00:14:33;7.00;99.90
14331;DHT22;7249;49.376;11.080;2024-03-06T00:17:01;7.10;99.90
14331;DHT22;7249;49.376;11.080;2024-03-06T00:19:30;7.00;99.90
14331;DHT22;7249;49.376;11.080;2024-03-06T00:21:55;7.00;99.90
14331;DHT22;7249;49.376;11.080;2024-03-06T00:24:21;7.00;99.90
14331;DHT22;7249;49.376;11.080;2024-03-06T00:26:48;7.00;99.90
14331;DHT22;7249;49.376;11.080;2024-03-06T00:29:14;7.00;99.90
14331;DHT22;7249;49.376;11.080;2024-03-06T00:31:44;7.00;99.90
14331;DHT22;7249;49.376;11.080;2024-03-06T00:34:10;7.00;99.90
14331;DHT22;7249;49.376;11.080;2024-03-06T00:36:43;7.00;99.90
14331;DHT22;7249;49.376;11.080;2024-03-06T00:39:09;7.10;99.90
14331;DHT22;7249;49.376;11.080;2024-03-06T00:41:35;7.00;99.90
14331;DHT22;7249;49.376;11.080;2024-03-06T00:44:01;7.00;99.90
14331;DHT22;7249;49.376;11.080;2024-03-06T00:46:27;7.00;99.90
14331;DHT22;7249;49.376;11.080;2024-03-06T00:48:53;7.00;99.90
14331;DHT22;7249;49.376;11.080;2024-03-06T00:51:19;6.90;99.90
14331;DHT22;7249;49.376;11.080;2024-03-06T00:53:45;6.90;99.90
14331;DHT22;7249;49.376;11.080;2024-03-06T00:56:11;6.90;99.90
14331;DHT22;7249;49.376;11.080;2024-03-06T00:58:36;6.90;99.90
14331;DHT22;7249;49.376;11.080;2024-03-06T01:01:02;6.90;99.90
14331;DHT22;7249;49.376;11.080;2024-03-06T01:03:28;6.90;99.90
14331;DHT22;7249;49.376;11.080;2024-03-06T01:05:54;6.90;99.90
14331;DHT22;7249;49.376;11.080;2024-03-06T01:08:22;6.90;99.90
14331;DHT22;7249;49.376;11.080;2024-03-06T01:10:50;6.90;99.90
14331;DHT22;7249;49.376;11.080;2024-03-06T01:13:17;6.90;99.90
14331;DHT22;7249;49.376;11.080;2024-03-06T01:15:43;6.90;99.90
14331;DHT22;7249;49.376;11.080;2024-03-06T01:18:09;6.90;99.90
14331;DHT22;7249;49.376;11.080;2024-03-06T01:20:35;6.90;99.90
14331;DHT22;7249;49.376;11.080;2024-03-06T01:23:01;6.90;99.90
14331;DHT22;7249;49.376;11.080;2024-03-06T01:25:27;6.90;99.90
14331;DHT22;7249;49.376;11.080;2024-03-06T01:27:53;6.90;99.90
14331;DHT22;7249;49.376;11.080;2024-03-06T01:30:18;6.80;99.90
14331;DHT22;7249;49.376;11.080;2024-03-06T01:32:44;6.80;99.90
14331;DHT22;7249;49.376;11.080;2024-03-06T01:35:10;6.80;99.90
14331;DHT22;7249;49.376;11.080;2024-03-06T01:37:35;6.80;99.90
14331;DHT22;7249;49.376;11.080;2024-03-06T01:40:01;6.80;99.90
14331;DHT22;7249;49.376;11.080;2024-03-06T01:42:29;6.70;99.90
14331;DHT22;7249;49.376;11.080;2024-03-06T01:44:55;6.80;99.90
14331;DHT22;7249;49.376;11.080;2024-03-06T01:47:21;6.80;99.90
14331;DHT22;7249;49.376;11.080;2024-03-06T01:49:47;6.80;99.90
14331;DHT22;7249;49.376;11.080;2024-03-06T01:52:14;6.80;99.90
14331;DHT22;7249;49.376;11.080;2024-03-06T01:54:42;6.80;99.90
14331;DHT22;7249;49.376;11.080;2024-03-06T01:57:08;6.80;99.90
14331;DHT22;7249;49.376;11.080;2024-03-06T01:59:35;6.80;99.90
14331;DHT22;7249;49.376;11.080;2024-03-06T02:02:01;6.80;99.90
14331;DHT22;7249;49.376;11.080;2024-03-06T02:04:29;6.80;99.90
14331;DHT22;7249;49.376;11.080;2024-03-06T02:06:56;6.80;99.90
14331;DHT22;7249;49.376;11.080;2024-03-06T02:09:23;6.80;99.90
14331;DHT22;7249;49.376;11.080;2024-03-06T02:11:48;6.80;99.90
14331;DHT22;7249;49.376;11.080;2024-03-06T02:14:16;6.80;99.90
14331;DHT22;7249;49.376;11.080;2024-03-06T02:16:41;6.80;99.90
14331;DHT22;7249;49.376;11.080;2024-03-06T02:19:08;6.70;99.90
14331;DHT22;7249;49.376;11.080;2024-03-06T02:21:34;6.70;99.90
14331;DHT22;7249;49.376;11.080;2024-03-06T02:24:00;6.70;99.90
14331;DHT22;7249;49.376;11.080;2024-03-06T02:26:25;6.70;99.90
14331;DHT22;7249;49.376;11.080;2024-03-06T02:28:55;6.70;99.90
14331;DHT22;7249;49.376;11.080;2024-03-06T02:31:21;6.80;99.90
14331;DHT22;7249;49.376;11.080;2024-03-06T02:33:49;6.80;99.90
14331;DHT22;7249;49.376;11.080;2024-03-06T02:36:18;6.80;99.90
14331;DHT22;7249;49.376;11.080;2024-03-06T02:38:44;6.80;99.90
14331;DHT22;7249;49.376;11.080;2024-03-06T02:41:11;6.80;99.90
14331;DHT22;7249;49.376;11.080;2024-03-06T02:43:39;6.90;99.90
14331;DHT22;7249;49.376;11.080;2024-03-06T02:46:05;6.90;99.90
14331;DHT22;7249;49.376;11.080;2024-03-06T02:48:31;6.90;99.90
14331;DHT22;7249;49.376;11.080;2024-03-06T02:50:57;6.90;99.90
14331;DHT22;7249;49.376;11.080;2024-03-06T02:53:22;7.00;99.90
14331;DHT22;7249;49.376;11.080;2024-03-06T02:55:48;7.00;99.90
14331;DHT22;7249;49.376;11.080;2024-03-06T02:58:15;6.90;99.90
14331;DHT22;7249;49.376;11.080;2024-03-06T03:00:42;7.00;99.90
14331;DHT22;7249;49.376;11.080;2024-03-06T03:03:09;7.00;99.90
14331;DHT22;7249;49.376;11.080;2024-03-06T03:05:35;7.00;99.90
14331;DHT22;7249;49.376;11.080;2024-03-06T03:08:01;7.00;99.90
14331;DHT22;7249;49.376;11.080;2024-03-06T03:10:27;7.00;99.90
14331;DHT22;7249;49.376;11.080;2024-03-06T03:12:53;7.10;99.90
14331;DHT22;7249;49.376;11.080;2024-03-06T03:15:20;7.10;99.90
14331;DHT22;7249;49.376;11.080;2024-03-06T03:17:46;7.10;99.90
14331;DHT22;7249;49.376;11.080;2024-03-06T03:20:11;7.10;99.90
14331;DHT22;7249;49.376;11.080;2024-03-06T03:22:41;7.10;99.90
14331;DHT22;7249;49.376;11.080;2024-03-06T03:25:10;7.10;99.90
14331;DHT22;7249;49.376;11.080;2024-03-06T03:27:40;7.10;99.90
14331;DHT22;7249;49.376;11.080;2024-03-06T03:30:10;7.10;99.90
14331;DHT22;7249;49.376;11.080;2024-03-06T03:32:36;7.20;99.90
14331;DHT22;7249;49.376;11.080;2024-03-06T03:35:04;7.20;99.90
14331;DHT22;7249;49.376;11.080;2024-03-06T03:37:31;7.20;99.90
14331;DHT22;7249;49.376;11.080;2024-03-06T03:39:56;7.20;99.90
14331;DHT22;7249;49.376;11.080;2024-03-06T03:42:22;7.20;99.90
14331;DHT22;7249;49.376;11.080;2024-03-06T03:44:48;7.20;99.90
14331;DHT22;7249;49.376;11.080;2024-03-06T03:47:13;7.20;99.90
14331;DHT22;7249;49.376;11.080;2024-03-06T03:49:39;7.20;99.90
14331;DHT22;7249;49.376;11.080;2024-03-06T03:52:05;7.20;99.90
14331;DHT22;7249;49.376;11.080;2024-03-06T03:54:30;7.20;99.90
14331;DHT22;7249;49.376;11.080;2024-03-06T03:56:56;7.20;99.90
14331;DHT22;7249;49.376;11.080;2024-03-06T03:59:21;7.20;99.90
14331;DHT22;7249;49.376;11.080;2024-03-06T04:01:47;7.30;99.90
14331;DHT22;7249;49.376;11.080;2024-03-06T04:04:13;7.30;99.90
14331;DHT22;7249;49.376;11.080;2024-03-06T04:06:39;7.40;99.90
14331;DHT22;7249;49.376;11.080;2024-03-06T04:09:05;7.30;99.90
14331;DHT22;7249;49.376;11.080;2024-03-06T04:11:30;7.30;99.90
14331;DHT22;7249;49.376;11.080;2024-03-06T04:13:59;7.30;99.90
14331;DHT22;7249;49.376;11.080;2024-03-06T04:16:25;7.30;99.90
14331;DHT22;7249;49.376;11.080;2024-03-06T04:18:51;7.30;99.90
14331;DHT22;7249;49.376;11.080;2024-03-06T04:21:17;7.20;99.90
14331;DHT22;7249;49.376;11.080;2024-03-06T04:23:43;7.20;99.90
14331;DHT22;7249;49.376;11.080;2024-03-06T04:26:09;7.20;99.90
14331;DHT22;7249;49.376;11.080;2024-03-06T04:28:35;7.20;99.90
14331;DHT22;7249;49.376;11.080;2024-03-06T04:31:00;7.20;99.90
14331;DHT22;7249;49.376;11.080;2024-03-06T04:33:26;7.20;99.90
14331;DHT22;7249;49.376;11.080;2024-03-06T04:35:52;7.10;99.90
14331;DHT22;7249;49.376;11.080;2024-03-06T04:38:17;7.10;99.90
14331;DHT22;7249;49.376;11.080;2024-03-06T04:40:43;7.10;99.90
14331;DHT22;7249;49.376;11.080;2024-03-06T04:43:10;7.10;99.90
14331;DHT22;7249;49.376;11.080;2024-03-06T04:45:36;7.10;99.90
14331;DHT22;7249;49.376;11.080;2024-03-06T04:48:02;7.10;99.90
14331;DHT22;7249;49.376;11.080;2024-03-06T04:50:27;7.10;99.90
14331;DHT22;7249;49.376;11.080;2024-03-06T04:52:53;7.10;99.90
14331;DHT22;7249;49.376;11.080;2024-03-06T04:55:19;7.10;99.90
14331;DHT22;7249;49.376;11.080;2024-03-06T04:57:48;7.10;99.90
14331;DHT22;7249;49.376;11.080;2024-03-06T05:00:14;7.10;99.90
14331;DHT22;7249;49.376;11.080;2024-03-06T05:02:40;7.10;99.90
14331;DHT22;7249;49.376;11.080;2024-03-06T05:05:07;7.10;99.90
14331;DHT22;7249;49.376;11.080;2024-03-06T05:07:34;7.10;99.90
14331;DHT22;7249;49.376;11.080;2024-03-06T05:09:59;7.10;99.90
14331;DHT22;7249;49.376;11.080;2024-03-06T05:12:26;7.00;99.90
14331;DHT22;7249;49.376;11.080;2024-03-06T05:14:53;7.00;99.90
14331;DHT22;7249;49.376;11.080;2024-03-06T05:17:19;7.00;99.90
14331;DHT22;7249;49.376;11.080;2024-03-06T05:19:46;7.00;99.90
14331;DHT22;7249;49.376;11.080;2024-03-06T05:22:13;7.00;99.90
14331;DHT22;7249;49.376;11.080;2024-03-06T05:24:40;7.00;99.90
14331;DHT22;7249;49.376;11.080;2024-03-06T05:27:06;7.00;99.90
14331;DHT22;7249;49.376;11.080;2024-03-06T05:29:32;7.00;99.90
14331;DHT22;7249;49.376;11.080;2024-03-06T05:31:58;6.90;99.90
14331;DHT22;7249;49.376;11.080;2024-03-06T05:34:24;6.90;99.90
14331;DHT22;7249;49.376;11.080;2024-03-06T05:36:50;6.90;99.90
14331;DHT22;7249;49.376;11.080;2024-03-06T05:39:16;6.90;99.90
14331;DHT22;7249;49.376;11.080;2024-03-06T05:41:43;6.90;99.90
14331;DHT22;7249;49.376;11.080;2024-03-06T05:44:09;6.80;99.90
14331;DHT22;7249;49.376;11.080;2024-03-06T05:46:36;6.90;99.90
14331;DHT22;7249;49.376;11.080;2024-03-06T05:49:01;6.90;99.90
14331;DHT22;7249;49.376;11.080;2024-03-06T05:51:27;6.90;99.90
14331;DHT22;7249;49.376;11.080;2024-03-06T05:53:53;6.90;99.90
14331;DHT22;7249;49.376;11.080;2024-03-06T05:56:19;6.90;99.90
14331;DHT22;7249;49.376;11.080;2024-03-06T05:58:46;6.90;99.90
14331;DHT22;7249;49.376;11.080;2024-03-06T06:01:15;6.90;99.90
14331;DHT22;7249;49.376;11.080;2024-03-06T06:03:44;6.90;99.90
14331;DHT22;7249;49.376;11.080;2024-03-06T06:06:10;7.00;99.90
14331;DHT22;7249;49.376;11.080;2024-03-06T06:08:35;7.00;99.90
14331;DHT22;7249;49.376;11.080;2024-03-06T06:11:04;7.00;99.90
14331;DHT22;7249;49.376;11.080;2024-03-06T06:13:29;7.10;99.90
14331;DHT22;7249;49.376;11.080;2024-03-06T06:15:58;7.10;99.90
14331;DHT22;7249;49.376;11.080;2024-03-06T06:18:23;7.10;99.90
14331;DHT22;7249;49.376;11.080;2024-03-06T06:20:49;7.20;99.90
14331;DHT22;7249;49.376;11.080;2024-03-06T06:23:15;7.20;99.90
14331;DHT22;7249;49.376;11.080;2024-03-06T06:25:40;7.30;99.90
14331;DHT22;7249;49.376;11.080;2024-03-06T06:28:06;7.40;99.90
14331;DHT22;7249;49.376;11.080;2024-03-06T06:30:32;7.40;99.90
14331;DHT22;7249;49.376;11.080;2024-03-06T06:32:57;7.50;99.90
14331;DHT22;7249;49.376;11.080;2024-03-06T06:35:23;7.60;99.90
14331;DHT22;7249;49.376;11.080;2024-03-06T06:37:50;7.70;99.90
14331;DHT22;7249;49.376;11.080;2024-03-06T06:40:16;7.80;99.90
14331;DHT22;7249;49.376;11.080;2024-03-06T06:42:47;7.80;99.90
14331;DHT22;7249;49.376;11.080;2024-03-06T06:45:15;7.90;99.90
14331;DHT22;7249;49.376;11.080;2024-03-06T06:47:41;7.90;99.90
14331;DHT22;7249;49.376;11.080;2024-03-06T06:50:07;8.00;99.90
14331;DHT22;7249;49.376;11.080;2024-03-06T06:52:35;8.10;99.90
14331;DHT22;7249;49.376;11.080;2024-03-06T06:55:01;8.10;99.90
14331;DHT22;7249;49.376;11.080;2024-03-06T06:57:26;8.20;99.90
14331;DHT22;7249;49.376;11.080;2024-03-06T06:59:52;8.20;99.90
14331;DHT22;7249;49.376;11.080;2024-03-06T07:02:18;8.30;99.90
14331;DHT22;7249;49.376;11.080;2024-03-06T07:04:44;8.30;99.90
14331;DHT22;7249;49.376;11.080;2024-03-06T07:07:09;8.40;99.90
14331;DHT22;7249;49.376;11.080;2024-03-06T07:09:35;8.30;99.90
14331;DHT22;7249;49.376;11.080;2024-03-06T07:12:01;8.30;99.90
14331;DHT22;7249;49.376;11.080;2024-03-06T07:14:28;8.40;99.90
14331;DHT22;7249;49.376;11.080;2024-03-06T07:16:54;8.40;99.90
14331;DHT22;7249;49.376;11.080;2024-03-06T07:19:20;8.40;99.90
14331;DHT22;7249;49.376;11.080;2024-03-06T07:21:45;8.30;99.90
14331;DHT22;7249;49.376;11.080;2024-03-06T07:24:11;8.30;99.90
14331;DHT22;7249;49.376;11.080;2024-03-06T07:26:37;8.40;99.90
14331;DHT22;7249;49.376;11.080;2024-03-06T07:29:02;8.40;99.90
14331;DHT22;7249;49.376;11.080;2024-03-06T07:31:28;8.40;99.90
14331;DHT22;7249;49.376;11.080;2024-03-06T07:33:54;8.50;99.90
14331;DHT22;7249;49.376;11.080;2024-03-06T07:36:21;8.50;99.90
14331;DHT22;7249;49.376;11.080;2024-03-06T07:38:47;8.50;99.90
14331;DHT22;7249;49.376;11.080;2024-03-06T07:41:13;8.50;99.90
14331;DHT22;7249;49.376;11.080;2024-03-06T07:43:38;8.60;99.90
14331;DHT22;7249;49.376;11.080;2024-03-06T07:46:04;8.60;99.90
14331;DHT22;7249;49.376;11.080;2024-03-06T07:48:37;8.60;99.90
14331;DHT22;7249;49.376;11.080;2024-03-06T07:51:03;8.60;99.90
14331;DHT22;7249;49.376;11.080;2024-03-06T07:53:28;8.60;99.90
14331;DHT22;7249;49.376;11.080;2024-03-06T07:55:54;8.60;99.90
14331;DHT22;7249;49.376;11.080;2024-03-06T07:58:19;8.60;99.90
14331;DHT22;7249;49.376;11.080;2024-03-06T08:00:46;8.60;99.90
14331;DHT22;7249;49.376;11.080;2024-03-06T08:03:12;8.70;99.90
14331;DHT22;7249;49.376;11.080;2024-03-06T08:05:39;8.70;99.90
14331;DHT22;7249;49.376;11.080;2024-03-06T08:08:05;8.70;99.90
14331;DHT22;7249;49.376;11.080;2024-03-06T08:10:30;8.80;99.90
14331;DHT22;7249;49.376;11.080;2024-03-06T08:12:56;8.90;99.90
14331;DHT22;7249;49.376;11.080;2024-03-06T08:15:23;8.90;99.90
14331;DHT22;7249;49.376;11.080;2024-03-06T08:17:49;8.90;99.90
14331;DHT22;7249;49.376;11.080;2024-03-06T08:20:15;8.90;99.90
14331;DHT22;7249;49.376;11.080;2024-03-06T08:22:42;9.00;99.90
14331;DHT22;7249;49.376;11.080;2024-03-06T08:25:09;9.00;99.90
14331;DHT22;7249;49.376;11.080;2024-03-06T08:27:35;9.00;99.90
14331;DHT22;7249;49.376;11.080;2024-03-06T08:30:04;9.00;99.90
14331;DHT22;7249;49.376;11.080;2024-03-06T08:32:32;9.00;99.90
14331;DHT22;7249;49.376;11.080;2024-03-06T08:35:11;9.00;99.90
14331;DHT22;7249;49.376;11.080;2024-03-06T08:37:38;9.00;99.90
14331;DHT22;7249;49.376;11.080;2024-03-06T08:40:05;9.00;99.90
14331;DHT22;7249;49.376;11.080;2024-03-06T08:42:32;9.00;99.90
14331;DHT22;7249;49.376;11.080;2024-03-06T08:44:58;9.00;99.90
14331;DHT22;7249;49.376;11.080;2024-03-06T08:47:24;9.10;99.90
14331;DHT22;7249;49.376;11.080;2024-03-06T08:49:50;9.20;99.90
14331;DHT22;7249;49.376;11.080;2024-03-06T08:52:15;9.30;99.90
14331;DHT22;7249;49.376;11.080;2024-03-06T08:54:41;9.30;99.90
14331;DHT22;7249;49.376;11.080;2024-03-06T08:57:08;9.30;99.90
14331;DHT22;7249;49.376;11.080;2024-03-06T08:59:34;9.30;99.90
14331;DHT22;7249;49.376;11.080;2024-03-06T09:02:20;9.30;99.90
14331;DHT22;7249;49.376;11.080;2024-03-06T09:04:46;9.10;99.90
14331;DHT22;7249;49.376;11.080;2024-03-06T09:07:13;9.10;99.90
14331;DHT22;7249;49.376;11.080;2024-03-06T09:09:39;9.10;99.90
14331;DHT22;7249;49.376;11.080;2024-03-06T09:12:08;9.10;99.90
14331;DHT22;7249;49.376;11.080;2024-03-06T09:14:38;9.20;99.90
14331;DHT22;7249;49.376;11.080;2024-03-06T09:17:04;9.20;99.90
14331;DHT22;7249;49.376;11.080;2024-03-06T09:19:31;9.30;99.90
14331;DHT22;7249;49.376;11.080;2024-03-06T09:21:57;9.40;99.90
14331;DHT22;7249;49.376;11.080;2024-03-06T09:24:23;9.50;99.90
14331;DHT22;7249;49.376;11.080;2024-03-06T09:26:51;9.40;99.90
14331;DHT22;7249;49.376;11.080;2024-03-06T09:29:17;9.50;99.90
14331;DHT22;7249;49.376;11.080;2024-03-06T09:31:43;9.50;99.90
14331;DHT22;7249;49.376;11.080;2024-03-06T09:34:09;9.50;99.90
14331;DHT22;7249;49.376;11.080;2024-03-06T09:36:39;9.50;99.90
14331;DHT22;7249;49.376;11.080;2024-03-06T09:39:04;9.40;99.90
14331;DHT22;7249;49.376;11.080;2024-03-06T09:41:30;9.30;99.90
14331;DHT22;7249;49.376;11.080;2024-03-06T09:43:59;9.30;99.90
14331;DHT22;7249;49.376;11.080;2024-03-06T09:46:26;9.20;99.90
14331;DHT22;7249;49.376;11.080;2024-03-06T09:48:52;9.30;99.90
14331;DHT22;7249;49.376;11.080;2024-03-06T09:51:19;9.30;99.90
14331;DHT22;7249;49.376;11.080;2024-03-06T09:53:46;9.30;99.90
14331;DHT22;7249;49.376;11.080;2024-03-06T09:56:15;9.40;99.90
14331;DHT22;7249;49.376;11.080;2024-03-06T09:58:41;9.50;99.90
14331;DHT22;7249;49.376;11.080;2024-03-06T10:01:07;9.50;99.90
14331;DHT22;7249;49.376;11.080;2024-03-06T10:03:37;9.70;99.90
14331;DHT22;7249;49.376;11.080;2024-03-06T10:06:02;10.00;99.90
14331;DHT22;7249;49.376;11.080;2024-03-06T10:08:28;10.40;99.90
14331;DHT22;7249;49.376;11.080;2024-03-06T10:10:54;10.70;99.90
14331;DHT22;7249;49.376;11.080;2024-03-06T10:13:26;11.00;99.90
14331;DHT22;7249;49.376;11.080;2024-03-06T10:16:02;11.30;99.90
14331;DHT22;7249;49.376;11.080;2024-03-06T10:18:28;11.40;99.90
14331;DHT22;7249;49.376;11.080;2024-03-06T10:20:55;11.50;99.90
14331;DHT22;7249;49.376;11.080;2024-03-06T10:23:21;11.50;99.90
14331;DHT22;7249;49.376;11.080;2024-03-06T10:25:50;11.60;99.90
14331;DHT22;7249;49.376;11.080;2024-03-06T10:28:19;11.80;99.90
14331;DHT22;7249;49.376;11.080;2024-03-06T10:30:46;12.20;99.90
14331;DHT22;7249;49.376;11.080;2024-03-06T10:33:13;12.60;99.90
14331;DHT22;7249;49.376;11.080;2024-03-06T10:35:43;13.10;99.90
14331;DHT22;7249;49.376;11.080;2024-03-06T10:38:10;13.50;99.90
14331;DHT22;7249;49.376;11.080;2024-03-06T10:40:40;14.00;99.90
14331;DHT22;7249;49.376;11.080;2024-03-06T10:43:07;14.40;99.90
14331;DHT22;7249;49.376;11.080;2024-03-06T10:45:51;15.10;99.90
14331;DHT22;7249;49.376;11.080;2024-03-06T10:48:20;15.30;99.90
14331;DHT22;7249;49.376;11.080;2024-03-06T10:50:46;15.10;99.90
14331;DHT22;7249;49.376;11.080;2024-03-06T10:53:14;14.80;99.90
14331;DHT22;7249;49.376;11.080;2024-03-06T10:55:42;14.60;99.90
14331;DHT22;7249;49.376;11.080;2024-03-06T10:58:10;14.20;99.90
14331;DHT22;7249;49.376;11.080;2024-03-06T11:00:38;13.90;99.90
14331;DHT22;7249;49.376;11.080;2024-03-06T11:03:10;13.60;99.90
14331;DHT22;7249;49.376;11.080;2024-03-06T11:05:39;13.50;99.90
14331;DHT22;7249;49.376;11.080;2024-03-06T11:08:13;13.30;99.90
14331;DHT22;7249;49.376;11.080;2024-03-06T11:10:41;13.20;99.90
14331;DHT22;7249;49.376;11.080;2024-03-06T11:13:23;13.10;99.90
14331;DHT22;7249;49.376;11.080;2024-03-06T11:15:52;12.90;99.90
14331;DHT22;7249;49.376;11.080;2024-03-06T11:23:34;12.30;99.90
14331;DHT22;7249;49.376;11.080;2024-03-06T11:26:06;12.20;99.90
14331;DHT22;7249;49.376;11.080;2024-03-06T11:28:32;12.10;99.90
14331;DHT22;7249;49.376;11.080;2024-03-06T11:31:05;12.10;99.90
14331;DHT22;7249;49.376;11.080;2024-03-06T11:41:13;11.40;99.90
14331;DHT22;7249;49.376;11.080;2024-03-06T11:43:43;11.30;99.90
14331;DHT22;7249;49.376;11.080;2024-03-06T11:46:09;11.30;99.90
14331;DHT22;7249;49.376;11.080;2024-03-06T11:48:36;11.20;99.90
14331;DHT22;7249;49.376;11.080;2024-03-06T11:51:03;11.20;99.90
14331;DHT22;7249;49.376;11.080;2024-03-06T11:53:30;11.30;99.90
14331;DHT22;7249;49.376;11.080;2024-03-06T11:55:56;11.30;99.90
14331;DHT22;7249;49.376;11.080;2024-03-06T11:58:22;11.30;99.90
14331;DHT22;7249;49.376;11.080;2024-03-06T12:00:48;11.30;99.90
14331;DHT22;7249;49.376;11.080;2024-03-06T12:03:14;11.40;99.90
14331;DHT22;7249;49.376;11.080;2024-03-06T12:05:40;11.40;99.90
14331;DHT22;7249;49.376;11.080;2024-03-06T12:08:07;11.40;99.90
14331;DHT22;7249;49.376;11.080;2024-03-06T12:10:38;11.40;99.90
14331;DHT22;7249;49.376;11.080;2024-03-06T12:13:08;11.40;99.90
14331;DHT22;7249;49.376;11.080;2024-03-06T12:15:34;11.30;99.90
14331;DHT22;7249;49.376;11.080;2024-03-06T12:18:01;11.30;99.90
14331;DHT22;7249;49.376;11.080;2024-03-06T12:20:27;11.30;99.90
14331;DHT22;7249;49.376;11.080;2024-03-06T12:22:54;11.40;99.90
14331;DHT22;7249;49.376;11.080;2024-03-06T12:25:22;11.50;99.90
14331;DHT22;7249;49.376;11.080;2024-03-06T12:27:49;11.60;99.90
14331;DHT22;7249;49.376;11.080;2024-03-06T12:30:21;11.80;99.90
14331;DHT22;7249;49.376;11.080;2024-03-06T12:33:01;11.90;99.90
14331;DHT22;7249;49.376;11.080;2024-03-06T12:35:31;12.00;99.90
14331;DHT22;7249;49.376;11.080;2024-03-06T12:37:57;12.10;99.90
14331;DHT22;7249;49.376;11.080;2024-03-06T12:40:23;12.10;99.90
14331;DHT22;7249;49.376;11.080;2024-03-06T12:42:49;12.20;99.90
14331;DHT22;7249;49.376;11.080;2024-03-06T12:45:18;12.40;99.90
14331;DHT22;7249;49.376;11.080;2024-03-06T12:47:45;12.50;99.90
14331;DHT22;7249;49.376;11.080;2024-03-06T12:50:13;12.60;99.90
14331;DHT22;7249;49.376;11.080;2024-03-06T12:52:40;12.70;99.90
14331;DHT22;7249;49.376;11.080;2024-03-06T12:55:06;12.60;99.90
14331;DHT22;7249;49.376;11.080;2024-03-06T12:57:33;12.60;99.90
14331;DHT22;7249;49.376;11.080;2024-03-06T12:59:59;12.50;99.90
14331;DHT22;7249;49.376;11.080;2024-03-06T13:02:25;12.50;99.90
14331;DHT22;7249;49.376;11.080;2024-03-06T13:04:51;12.40;99.90
14331;DHT22;7249;49.376;11.080;2024-03-06T13:07:16;12.30;99.90
14331;DHT22;7249;49.376;11.080;2024-03-06T13:09:42;12.30;99.90
14331;DHT22;7249;49.376;11.080;2024-03-06T13:12:08;12.20;99.90
14331;DHT22;7249;49.376;11.080;2024-03-06T13:14:34;12.10;99.90
14331;DHT22;7249;49.376;11.080;2024-03-06T13:17:00;12.00;99.90
14331;DHT22;7249;49.376;11.080;2024-03-06T13:19:27;12.00;99.90
14331;DHT22;7249;49.376;11.080;2024-03-06T13:21:53;12.00;99.90
14331;DHT22;7249;49.376;11.080;2024-03-06T13:24:19;12.10;99.90
14331;DHT22;7249;49.376;11.080;2024-03-06T13:26:48;12.30;99.90
14331;DHT22;7249;49.376;11.080;2024-03-06T13:29:13;12.40;99.90
14331;DHT22;7249;49.376;11.080;2024-03-06T13:31:39;12.60;99.90
14331;DHT22;7249;49.376;11.080;2024-03-06T13:34:05;12.70;99.90
14331;DHT22;7249;49.376;11.080;2024-03-06T13:36:31;12.90;99.90
14331;DHT22;7249;49.376;11.080;2024-03-06T13:38:56;12.90;99.90
14331;DHT22;7249;49.376;11.080;2024-03-06T13:41:22;12.90;99.90
14331;DHT22;7249;49.376;11.080;2024-03-06T13:43:48;12.90;99.90
14331;DHT22;7249;49.376;11.080;2024-03-06T13:46:14;12.80;99.90
14331;DHT22;7249;49.376;11.080;2024-03-06T13:48:40;12.80;99.90
14331;DHT22;7249;49.376;11.080;2024-03-06T13:51:05;12.80;99.90
14331;DHT22;7249;49.376;11.080;2024-03-06T13:53:31;12.90;99.90
14331;DHT22;7249;49.376;11.080;2024-03-06T13:55:57;12.80;99.90
14331;DHT22;7249;49.376;11.080;2024-03-06T13:58:23;12.80;99.90
14331;DHT22;7249;49.376;11.080;2024-03-06T14:00:49;12.90;99.90
14331;DHT22;7249;49.376;11.080;2024-03-06T14:03:15;12.90;99.90
14331;DHT22;7249;49.376;11.080;2024-03-06T14:05:40;13.00;99.90
14331;DHT22;7249;49.376;11.080;2024-03-06T14:08:06;13.10;99.90
14331;DHT22;7249;49.376;11.080;2024-03-06T14:10:33;13.10;99.90
14331;DHT22;7249;49.376;11.080;2024-03-06T14:12:59;13.20;99.90
14331;DHT22;7249;49.376;11.080;2024-03-06T14:15:25;13.10;99.90
14331;DHT22;7249;49.376;11.080;2024-03-06T14:17:52;13.10;99.90
14331;DHT22;7249;49.376;11.080;2024-03-06T14:20:20;13.00;99.90
14331;DHT22;7249;49.376;11.080;2024-03-06T14:22:45;12.90;99.90
14331;DHT22;7249;49.376;11.080;2024-03-06T14:25:11;12.80;99.90
14331;DHT22;7249;49.376;11.080;2024-03-06T14:27:38;12.70;99.90
14331;DHT22;7249;49.376;11.080;2024-03-06T14:30:04;12.50;99.90
14331;DHT22;7249;49.376;11.080;2024-03-06T14:32:33;12.40;99.90
14331;DHT22;7249;49.376;11.080;2024-03-06T14:34:59;12.20;99.90
14331;DHT22;7249;49.376;11.080;2024-03-06T14:37:24;12.10;99.90
14331;DHT22;7249;49.376;11.080;2024-03-06T14:39:50;11.90;99.90
14331;DHT22;7249;49.376;11.080;2024-03-06T14:42:18;11.80;99.90
14331;DHT22;7249;49.376;11.080;2024-03-06T14:44:44;11.70;99.90
14331;DHT22;7249;49.376;11.080;2024-03-06T14:47:10;11.60;99.90
14331;DHT22;7249;49.376;11.080;2024-03-06T14:49:36;11.70;99.90
14331;DHT22;7249;49.376;11.080;2024-03-06T14:52:02;11.60;99.90
14331;DHT22;7249;49.376;11.080;2024-03-06T14:54:28;11.60;99.90
14331;DHT22;7249;49.376;11.080;2024-03-06T14:56:54;11.60;99.90
14331;DHT22;7249;49.376;11.080;2024-03-06T14:59:21;11.60;99.90
14331;DHT22;7249;49.376;11.080;2024-03-06T15:01:47;11.60;99.90
14331;DHT22;7249;49.376;11.080;2024-03-06T15:04:13;11.60;99.90
14331;DHT22;7249;49.376;11.080;2024-03-06T15:06:39;11.60;99.90
14331;DHT22;7249;49.376;11.080;2024-03-06T15:09:05;11.50;99.90
14331;DHT22;7249;49.376;11.080;2024-03-06T15:11:31;11.50;99.90
14331;DHT22;7249;49.376;11.080;2024-03-06T15:14:00;11.50;99.90
14331;DHT22;7249;49.376;11.080;2024-03-06T15:16:25;11.50;99.90
14331;DHT22;7249;49.376;11.080;2024-03-06T15:18:51;11.50;99.90
14331;DHT22;7249;49.376;11.080;2024-03-06T15:21:19;11.40;99.90
14331;DHT22;7249;49.376;11.080;2024-03-06T15:23:45;11.40;99.90
14331;DHT22;7249;49.376;11.080;2024-03-06T15:26:11;11.30;99.90
14331;DHT22;7249;49.376;11.080;2024-03-06T15:28:37;11.30;99.90
14331;DHT22;7249;49.376;11.080;2024-03-06T15:31:03;11.30;99.90
14331;DHT22;7249;49.376;11.080;2024-03-06T15:33:30;11.30;99.90
14331;DHT22;7249;49.376;11.080;2024-03-06T15:35:56;11.30;99.90
14331;DHT22;7249;49.376;11.080;2024-03-06T15:38:21;11.20;99.90
14331;DHT22;7249;49.376;11.080;2024-03-06T15:40:48;11.20;99.90
14331;DHT22;7249;49.376;11.080;2024-03-06T15:43:16;11.20;99.90
14331;DHT22;7249;49.376;11.080;2024-03-06T15:45:45;11.20;99.90
14331;DHT22;7249;49.376;11.080;2024-03-06T15:48:11;11.10;99.90
14331;DHT22;7249;49.376;11.080;2024-03-06T15:50:40;11.10;99.90